createdAt,value
2023-04-30T00:00:35.088Z,8750.00
2023-04-30T00:01:35.129Z,8821.00
2023-04-30T00:02:35.293Z,8560.00
2023-04-30T00:03:35.308Z,8537.00
2023-04-30T00:04:35.193Z,8623.00
2023-04-30T00:05:35.235Z,8765.00
2023-04-30T00:06:35.283Z,8686.00
2023-04-30T00:07:35.268Z,8487.00
2023-04-30T00:08:35.268Z,8252.00
2023-04-30T00:09:35.279Z,8058.00
2023-04-30T00:10:35.293Z,8022.00
2023-04-30T00:11:35.358Z,7841.00
2023-04-30T00:12:35.301Z,7781.00
2023-04-30T00:13:35.358Z,7794.00
2023-04-30T00:14:35.316Z,7775.00
2023-04-30T00:15:35.381Z,7700.00
2023-04-30T00:16:35.411Z,7639.00
2023-04-30T00:17:35.459Z,7803.00
2023-04-30T00:18:35.405Z,7853.00
2023-04-30T00:19:35.404Z,7822.00
2023-04-30T00:20:35.412Z,7885.00
2023-04-30T00:21:35.415Z,7941.00
2023-04-30T00:22:35.473Z,8063.00
2023-04-30T00:23:35.501Z,8210.00
2023-04-30T00:24:35.548Z,8314.00
2023-04-30T00:25:35.570Z,8206.00
2023-04-30T00:26:35.568Z,8202.00
2023-04-30T00:27:35.582Z,8185.00
2023-04-30T00:28:35.598Z,8104.00
2023-04-30T00:29:35.641Z,8245.00
2023-04-30T00:30:35.644Z,8333.00
2023-04-30T00:31:35.744Z,8331.00
2023-04-30T00:32:35.716Z,8287.00
2023-04-30T00:33:35.752Z,8161.00
2023-04-30T00:34:35.805Z,8043.00
2023-04-30T00:35:35.812Z,8093.00
2023-04-30T00:36:35.816Z,8123.00
2023-04-30T00:37:35.878Z,8212.00
2023-04-30T00:38:35.872Z,8255.00
2023-04-30T00:39:35.831Z,8231.00
2023-04-30T00:40:35.861Z,8256.00
2023-04-30T00:41:35.902Z,8292.00
2023-04-30T00:42:35.899Z,8179.00
2023-04-30T00:43:35.887Z,8127.00
2023-04-30T00:44:35.903Z,8087.00
2023-04-30T00:45:35.918Z,8002.00
2023-04-30T00:46:35.975Z,8048.00
2023-04-30T00:47:35.982Z,8059.00
2023-04-30T00:48:35.991Z,7963.00
2023-04-30T00:49:36.005Z,7969.00
2023-04-30T00:50:36.007Z,8030.00
2023-04-30T00:51:36.043Z,8007.00
2023-04-30T00:52:36.038Z,7874.00
2023-04-30T00:53:36.045Z,7865.00
2023-04-30T00:54:36.081Z,7700.00
2023-04-30T00:55:36.098Z,7697.00
2023-04-30T00:56:36.103Z,7568.00
2023-04-30T00:57:36.127Z,7396.00
2023-04-30T00:58:36.155Z,7268.00
2023-04-30T00:59:36.186Z,7121.00
2023-04-30T01:00:36.145Z,7025.00
2023-04-30T01:01:36.189Z,7020.00
2023-04-30T01:02:36.268Z,7144.00
2023-04-30T01:03:36.533Z,7219.00
2023-04-30T01:04:36.226Z,7272.00
2023-04-30T01:05:36.404Z,7275.00
2023-04-30T01:06:36.444Z,7265.00
2023-04-30T01:07:36.368Z,7306.00
2023-04-30T01:08:36.416Z,7260.00
2023-04-30T01:09:36.453Z,7291.00
2023-04-30T01:10:36.463Z,7302.00
2023-04-30T01:11:36.442Z,7408.00
2023-04-30T01:12:36.512Z,7412.00
2023-04-30T01:13:36.547Z,7314.00
2023-04-30T01:14:36.515Z,7206.00
2023-04-30T01:15:36.558Z,7191.00
2023-04-30T01:16:36.493Z,7243.00
2023-04-30T01:17:36.515Z,7274.00
2023-04-30T01:18:36.595Z,7303.00
2023-04-30T01:19:36.537Z,7294.00
2023-04-30T01:20:36.533Z,7169.00
2023-04-30T01:21:36.586Z,7245.00
2023-04-30T01:22:36.618Z,7301.00
2023-04-30T01:23:36.699Z,7326.00
2023-04-30T01:24:36.677Z,7421.00
2023-04-30T01:25:36.680Z,7386.00
2023-04-30T01:26:36.685Z,7389.00
2023-04-30T01:27:36.707Z,7397.00
2023-04-30T01:28:36.708Z,7499.00
2023-04-30T01:29:36.723Z,7556.00
2023-04-30T01:30:36.739Z,7614.00
2023-04-30T01:31:36.840Z,7586.00
2023-04-30T01:32:36.839Z,7498.00
2023-04-30T01:33:36.840Z,7552.00
2023-04-30T01:34:36.844Z,7643.00
2023-04-30T01:35:36.885Z,7661.00
2023-04-30T01:36:36.913Z,7660.00
2023-04-30T01:37:36.914Z,7624.00
2023-04-30T01:38:36.967Z,7579.00
2023-04-30T01:39:36.974Z,7501.00
2023-04-30T01:40:36.989Z,7456.00
2023-04-30T01:41:37.041Z,7459.00
2023-04-30T01:42:37.046Z,7376.00
2023-04-30T01:43:37.066Z,7380.00
2023-04-30T01:44:37.110Z,7390.00
2023-04-30T01:45:37.114Z,7449.00
2023-04-30T01:46:37.276Z,7423.00
2023-04-30T01:47:37.253Z,7458.00
2023-04-30T01:48:37.238Z,7507.00
2023-04-30T01:49:37.256Z,7506.00
2023-04-30T01:50:37.317Z,7411.00
2023-04-30T01:51:38.241Z,7326.00
2023-04-30T01:52:37.336Z,7271.00
2023-04-30T01:53:37.360Z,7170.00
2023-04-30T01:54:37.436Z,7108.00
2023-04-30T01:55:37.443Z,7201.00
2023-04-30T01:56:37.476Z,7236.00
2023-04-30T01:57:37.590Z,7067.00
2023-04-30T01:58:37.521Z,6841.00
2023-04-30T01:59:37.575Z,6790.00
2023-04-30T02:00:37.579Z,7006.00
2023-04-30T02:01:37.641Z,7200.00
2023-04-30T02:02:37.726Z,7312.00
2023-04-30T02:03:37.747Z,7344.00
2023-04-30T02:04:37.638Z,7380.00
2023-04-30T02:05:37.670Z,7376.00
2023-04-30T02:06:37.713Z,7304.00
2023-04-30T02:07:37.711Z,7231.00
2023-04-30T02:08:37.758Z,7269.00
2023-04-30T02:09:37.801Z,7313.00
2023-04-30T02:10:37.838Z,7333.00
2023-04-30T02:11:37.896Z,7329.00
2023-04-30T02:12:37.957Z,7277.00
2023-04-30T02:13:37.985Z,7232.00
2023-04-30T02:14:38.045Z,7163.00
2023-04-30T02:15:38.091Z,7014.00
2023-04-30T02:16:38.272Z,7044.00
2023-04-30T02:17:38.252Z,7052.00
2023-04-30T02:18:38.301Z,7058.00
2023-04-30T02:19:38.237Z,7015.00
2023-04-30T02:20:38.272Z,7046.00
2023-04-30T02:21:38.312Z,7122.00
2023-04-30T02:22:38.280Z,7106.00
2023-04-30T02:23:38.308Z,7116.00
2023-04-30T02:24:38.341Z,6966.00
2023-04-30T02:25:38.341Z,6924.00
2023-04-30T02:26:38.341Z,6961.00
2023-04-30T02:27:38.406Z,6916.00
2023-04-30T02:28:38.408Z,6834.00
2023-04-30T02:29:38.469Z,6866.00
2023-04-30T02:30:38.554Z,6864.00
2023-04-30T02:31:38.592Z,6898.00
2023-04-30T02:32:38.669Z,7032.00
2023-04-30T02:33:38.621Z,7090.00
2023-04-30T02:34:38.652Z,7044.00
2023-04-30T02:35:38.716Z,6896.00
2023-04-30T02:36:38.722Z,7045.00
2023-04-30T02:37:38.739Z,7140.00
2023-04-30T02:38:38.758Z,7376.00
2023-04-30T02:39:38.758Z,7547.00
2023-04-30T02:40:38.776Z,7583.00
2023-04-30T02:41:38.845Z,7412.00
2023-04-30T02:42:38.830Z,7310.00
2023-04-30T02:43:38.886Z,7328.00
2023-04-30T02:44:38.866Z,7341.00
2023-04-30T02:45:38.898Z,7380.00
2023-04-30T02:46:38.912Z,7292.00
2023-04-30T02:47:38.961Z,7326.00
2023-04-30T02:48:38.936Z,7419.00
2023-04-30T02:49:38.967Z,7372.00
2023-04-30T02:50:39.016Z,7319.00
2023-04-30T02:51:39.067Z,7103.00
2023-04-30T02:52:39.124Z,6999.00
2023-04-30T02:53:39.130Z,7181.00
2023-04-30T02:54:39.184Z,6992.00
2023-04-30T02:55:39.195Z,6919.00
2023-04-30T02:56:39.266Z,6913.00
2023-04-30T02:57:39.286Z,6837.00
2023-04-30T02:58:39.293Z,6595.00
2023-04-30T02:59:39.311Z,6602.00
2023-04-30T03:00:39.385Z,6646.00
2023-04-30T03:01:39.540Z,6659.00
2023-04-30T03:02:39.497Z,6593.00
2023-04-30T03:03:39.508Z,6645.00
2023-04-30T03:04:39.566Z,6671.00
2023-04-30T03:05:39.518Z,6653.00
2023-04-30T03:06:39.656Z,6651.00
2023-04-30T03:07:39.576Z,6635.00
2023-04-30T03:08:39.586Z,6535.00
2023-04-30T03:09:39.593Z,6632.00
2023-04-30T03:10:39.649Z,6503.00
2023-04-30T03:11:39.652Z,6576.00
2023-04-30T03:12:39.654Z,6697.00
2023-04-30T03:13:39.935Z,6644.00
2023-04-30T03:14:39.725Z,6673.00
2023-04-30T03:15:39.733Z,6677.00
2023-04-30T03:16:39.902Z,6685.00
2023-04-30T03:17:39.949Z,6614.00
2023-04-30T03:18:39.909Z,6690.00
2023-04-30T03:19:39.913Z,6806.00
2023-04-30T03:20:39.915Z,6716.00
2023-04-30T03:21:39.938Z,6661.00
2023-04-30T03:22:39.944Z,6727.00
2023-04-30T03:23:39.981Z,6743.00
2023-04-30T03:24:39.981Z,6653.00
2023-04-30T03:25:40.015Z,6802.00
2023-04-30T03:26:40.083Z,6921.00
2023-04-30T03:27:40.060Z,6955.00
2023-04-30T03:28:40.078Z,6966.00
2023-04-30T03:29:40.114Z,7045.00
2023-04-30T03:30:40.140Z,7036.00
2023-04-30T03:31:40.220Z,6963.00
2023-04-30T03:32:40.217Z,6905.00
2023-04-30T03:33:40.222Z,6911.00
2023-04-30T03:34:40.213Z,6838.00
2023-04-30T03:35:40.248Z,6817.00
2023-04-30T03:36:40.277Z,6772.00
2023-04-30T03:37:40.312Z,6483.00
2023-04-30T03:38:40.306Z,6336.00
2023-04-30T03:39:40.346Z,6379.00
2023-04-30T03:40:40.311Z,6308.00
2023-04-30T03:41:40.373Z,6171.00
2023-04-30T03:42:40.450Z,6037.00
2023-04-30T03:43:40.436Z,5945.00
2023-04-30T03:44:40.443Z,6026.00
2023-04-30T03:45:40.517Z,6152.00
2023-04-30T03:46:40.564Z,6043.00
2023-04-30T03:47:40.650Z,6166.00
2023-04-30T03:48:40.615Z,6279.00
2023-04-30T03:49:40.621Z,6284.00
2023-04-30T03:50:40.624Z,6389.00
2023-04-30T03:51:40.631Z,6514.00
2023-04-30T03:52:40.640Z,6350.00
2023-04-30T03:53:40.717Z,6217.00
2023-04-30T03:54:40.758Z,6331.00
2023-04-30T03:55:40.755Z,6359.00
2023-04-30T03:56:40.799Z,6362.00
2023-04-30T03:57:40.809Z,6401.00
2023-04-30T03:58:40.806Z,6334.00
2023-04-30T03:59:40.822Z,6257.00
2023-04-30T04:00:40.893Z,6085.00
2023-04-30T04:01:40.935Z,6036.00
2023-04-30T04:02:40.945Z,6072.00
2023-04-30T04:03:40.966Z,6309.00
2023-04-30T04:04:40.953Z,6163.00
2023-04-30T04:05:40.992Z,6227.00
2023-04-30T04:06:41.043Z,6163.00
2023-04-30T04:07:40.982Z,6259.00
2023-04-30T04:08:41.123Z,6252.00
2023-04-30T04:09:41.090Z,6236.00
2023-04-30T04:10:41.176Z,6224.00
2023-04-30T04:11:41.125Z,6103.00
2023-04-30T04:12:41.176Z,6129.00
2023-04-30T04:13:41.185Z,6219.00
2023-04-30T04:14:41.233Z,6201.00
2023-04-30T04:15:41.277Z,6277.00
2023-04-30T04:16:41.292Z,6324.00
2023-04-30T04:17:41.333Z,6294.00
2023-04-30T04:18:41.315Z,6278.00
2023-04-30T04:19:41.324Z,6286.00
2023-04-30T04:20:41.372Z,6318.00
2023-04-30T04:21:41.374Z,6266.00
2023-04-30T04:22:41.386Z,6113.00
2023-04-30T04:23:41.443Z,6122.00
2023-04-30T04:24:41.450Z,5948.00
2023-04-30T04:25:41.508Z,5835.00
2023-04-30T04:26:41.585Z,5844.00
2023-04-30T04:27:41.540Z,5755.00
2023-04-30T04:28:41.542Z,5786.00
2023-04-30T04:29:41.568Z,5808.00
2023-04-30T04:30:41.620Z,5685.00
2023-04-30T04:31:41.767Z,5659.00
2023-04-30T04:32:41.720Z,5697.00
2023-04-30T04:33:41.716Z,5775.00
2023-04-30T04:34:41.723Z,5651.00
2023-04-30T04:35:41.766Z,5638.00
2023-04-30T04:36:41.839Z,5660.00
2023-04-30T04:37:41.840Z,5650.00
2023-04-30T04:38:41.885Z,5802.00
2023-04-30T04:39:41.869Z,6046.00
2023-04-30T04:40:41.886Z,6004.00
2023-04-30T04:41:41.885Z,5719.00
2023-04-30T04:42:42.003Z,5722.00
2023-04-30T04:43:41.929Z,5796.00
2023-04-30T04:44:41.965Z,5886.00
2023-04-30T04:45:41.996Z,5837.00
2023-04-30T04:46:42.214Z,5756.00
2023-04-30T04:47:42.108Z,5715.00
2023-04-30T04:48:42.114Z,5742.00
2023-04-30T04:49:42.120Z,5701.00
2023-04-30T04:50:42.079Z,5666.00
2023-04-30T04:51:42.133Z,5640.00
2023-04-30T04:52:42.250Z,5833.00
2023-04-30T04:53:42.216Z,5707.00
2023-04-30T04:54:42.221Z,5678.00
2023-04-30T04:55:42.214Z,5709.00
2023-04-30T04:56:42.310Z,5431.00
2023-04-30T04:57:42.330Z,5425.00
2023-04-30T04:58:42.361Z,5621.00
2023-04-30T04:59:42.415Z,5620.00
2023-04-30T05:00:42.434Z,5531.00
2023-04-30T05:01:42.512Z,5681.00
2023-04-30T05:02:42.585Z,5597.00
2023-04-30T05:03:42.644Z,5600.00
2023-04-30T05:04:42.551Z,5492.00
2023-04-30T05:05:42.584Z,5060.00
2023-04-30T05:06:42.639Z,5062.00
2023-04-30T05:07:42.633Z,5133.00
2023-04-30T05:08:42.692Z,5171.00
2023-04-30T05:09:42.758Z,5290.00
2023-04-30T05:10:42.767Z,5212.00
2023-04-30T05:11:42.786Z,5162.00
2023-04-30T05:12:42.809Z,5332.00
2023-04-30T05:13:42.951Z,5233.00
2023-04-30T05:14:42.920Z,5180.00
2023-04-30T05:15:42.914Z,5265.00
2023-04-30T05:16:43.072Z,5558.00
2023-04-30T05:17:42.979Z,5459.00
2023-04-30T05:18:42.944Z,5345.00
2023-04-30T05:19:43.022Z,5306.00
2023-04-30T05:20:43.005Z,5110.00
2023-04-30T05:21:43.031Z,5275.00
2023-04-30T05:22:43.043Z,5323.00
2023-04-30T05:23:43.049Z,5346.00
2023-04-30T05:24:43.068Z,5162.00
2023-04-30T05:25:43.072Z,5104.00
2023-04-30T05:26:43.129Z,5295.00
2023-04-30T05:27:43.117Z,5379.00
2023-04-30T05:28:43.224Z,5521.00
2023-04-30T05:29:43.140Z,5338.00
2023-04-30T05:30:43.158Z,5328.00
2023-04-30T05:31:43.274Z,5460.00
2023-04-30T05:32:43.278Z,5450.00
2023-04-30T05:33:43.347Z,5447.00
2023-04-30T05:34:43.358Z,5466.00
2023-04-30T05:35:43.434Z,5493.00
2023-04-30T05:36:44.367Z,5462.00
2023-04-30T05:37:43.471Z,5467.00
2023-04-30T05:38:43.565Z,5493.00
2023-04-30T05:39:43.552Z,5574.00
2023-04-30T05:40:43.599Z,5573.00
2023-04-30T05:41:43.641Z,5420.00
2023-04-30T05:42:43.705Z,5274.00
2023-04-30T05:43:43.729Z,5051.00
2023-04-30T05:44:43.751Z,5189.00
2023-04-30T05:45:43.851Z,5281.00
2023-04-30T05:46:43.845Z,5196.00
2023-04-30T05:47:43.850Z,5101.00
2023-04-30T05:48:43.886Z,5060.00
2023-04-30T05:49:43.884Z,5186.00
2023-04-30T05:50:43.901Z,5191.00
2023-04-30T05:51:43.916Z,5385.00
2023-04-30T05:52:43.927Z,5446.00
2023-04-30T05:53:43.956Z,5404.00
2023-04-30T05:54:43.975Z,5316.00
2023-04-30T05:55:44.007Z,5206.00
2023-04-30T05:56:44.044Z,5077.00
2023-04-30T05:57:44.101Z,5076.00
2023-04-30T05:58:44.109Z,5006.00
2023-04-30T05:59:44.213Z,5034.00
2023-04-30T06:00:44.230Z,5038.00
2023-04-30T06:01:44.329Z,4966.00
2023-04-30T06:02:44.393Z,4944.00
2023-04-30T06:03:44.407Z,4990.00
2023-04-30T06:04:44.479Z,4799.00
2023-04-30T06:05:44.550Z,4733.00
2023-04-30T06:06:44.640Z,4741.00
2023-04-30T06:07:44.574Z,4777.00
2023-04-30T06:08:44.587Z,4826.00
2023-04-30T06:09:44.627Z,4895.00
2023-04-30T06:10:44.689Z,4881.00
2023-04-30T06:11:44.735Z,4777.00
2023-04-30T06:12:44.722Z,4667.00
2023-04-30T06:13:44.798Z,4503.00
2023-04-30T06:14:44.839Z,4421.00
2023-04-30T06:15:44.910Z,3978.00
2023-04-30T06:16:45.060Z,3805.00
2023-04-30T06:17:44.950Z,3783.00
2023-04-30T06:18:44.967Z,3697.00
2023-04-30T06:19:45.000Z,3797.00
2023-04-30T06:20:45.046Z,3878.00
2023-04-30T06:21:45.064Z,3921.00
2023-04-30T06:22:45.101Z,3762.00
2023-04-30T06:23:45.086Z,3642.00
2023-04-30T06:24:45.167Z,3776.00
2023-04-30T06:25:45.239Z,3805.00
2023-04-30T06:26:45.290Z,3729.00
2023-04-30T06:27:45.301Z,3716.00
2023-04-30T06:28:45.300Z,3677.00
2023-04-30T06:29:45.368Z,3496.00
2023-04-30T06:30:45.425Z,3217.00
2023-04-30T06:31:45.464Z,3262.00
2023-04-30T06:32:45.570Z,3106.00
2023-04-30T06:33:45.474Z,2866.00
2023-04-30T06:34:45.485Z,2905.00
2023-04-30T06:35:45.555Z,2857.00
2023-04-30T06:36:45.565Z,2742.00
2023-04-30T06:37:45.575Z,2911.00
2023-04-30T06:38:45.604Z,3055.00
2023-04-30T06:39:45.633Z,3134.00
2023-04-30T06:40:45.748Z,3038.00
2023-04-30T06:41:45.725Z,3009.00
2023-04-30T06:42:47.473Z,3140.00
2023-04-30T06:43:45.827Z,3113.00
2023-04-30T06:44:45.843Z,2933.00
2023-04-30T06:45:45.969Z,2958.00
2023-04-30T06:46:45.939Z,2816.00
2023-04-30T06:47:45.937Z,2719.00
2023-04-30T06:48:45.922Z,2650.00
2023-04-30T06:49:45.941Z,2571.00
2023-04-30T06:50:45.995Z,2558.00
2023-04-30T06:51:45.984Z,2830.00
2023-04-30T06:52:46.064Z,2960.00
2023-04-30T06:53:46.104Z,2920.00
2023-04-30T06:54:46.099Z,2892.00
2023-04-30T06:55:46.196Z,2986.00
2023-04-30T06:56:46.179Z,3062.00
2023-04-30T06:57:46.243Z,3049.00
2023-04-30T06:58:46.226Z,3364.00
2023-04-30T06:59:46.258Z,3458.00
2023-04-30T07:00:46.314Z,3249.00
2023-04-30T07:01:46.404Z,3245.00
2023-04-30T07:02:46.386Z,3341.00
2023-04-30T07:03:46.470Z,3398.00
2023-04-30T07:04:46.371Z,3540.00
2023-04-30T07:05:46.429Z,3300.00
2023-04-30T07:06:46.500Z,3285.00
2023-04-30T07:07:46.434Z,3331.00
2023-04-30T07:08:46.475Z,3232.00
2023-04-30T07:09:46.542Z,3079.00
2023-04-30T07:10:46.546Z,3224.00
2023-04-30T07:11:47.325Z,3420.00
2023-04-30T07:12:46.601Z,3162.00
2023-04-30T07:13:46.635Z,2976.00
2023-04-30T07:14:46.660Z,3002.00
2023-04-30T07:15:46.700Z,2961.00
2023-04-30T07:16:46.701Z,2999.00
2023-04-30T07:17:46.773Z,3047.00
2023-04-30T07:18:46.708Z,2942.00
2023-04-30T07:19:46.740Z,2982.00
2023-04-30T07:20:46.796Z,2919.00
2023-04-30T07:21:46.783Z,2924.00
2023-04-30T07:22:46.863Z,2921.00
2023-04-30T07:23:46.897Z,2648.00
2023-04-30T07:24:46.987Z,2868.00
2023-04-30T07:25:46.945Z,2848.00
2023-04-30T07:26:47.003Z,2757.00
2023-04-30T07:27:46.967Z,2731.00
2023-04-30T07:28:47.044Z,2516.00
2023-04-30T07:29:47.134Z,2634.00
2023-04-30T07:30:47.127Z,2894.00
2023-04-30T07:31:47.169Z,2880.00
2023-04-30T07:32:47.203Z,2717.00
2023-04-30T07:33:47.253Z,2653.00
2023-04-30T07:34:47.262Z,2727.00
2023-04-30T07:35:47.297Z,2869.00
2023-04-30T07:36:47.353Z,2973.00
2023-04-30T07:37:47.325Z,3008.00
2023-04-30T07:38:47.372Z,3072.00
2023-04-30T07:39:47.430Z,3216.00
2023-04-30T07:40:47.481Z,3399.00
2023-04-30T07:41:47.447Z,3660.00
2023-04-30T07:42:47.501Z,3501.00
2023-04-30T07:43:47.581Z,3425.00
2023-04-30T07:44:47.636Z,3426.00
2023-04-30T07:45:47.687Z,3229.00
2023-04-30T07:46:47.655Z,3112.00
2023-04-30T07:47:47.700Z,2817.00
2023-04-30T07:48:47.697Z,2942.00
2023-04-30T07:49:47.716Z,2852.00
2023-04-30T07:50:47.724Z,2985.00
2023-04-30T07:51:47.774Z,2944.00
2023-04-30T07:52:47.801Z,3042.00
2023-04-30T07:53:47.803Z,2966.00
2023-04-30T07:54:47.857Z,2894.00
2023-04-30T07:55:47.905Z,2878.00
2023-04-30T07:56:47.943Z,2999.00
2023-04-30T07:57:47.953Z,2891.00
2023-04-30T07:58:47.978Z,2968.00
2023-04-30T07:59:50.535Z,3030.00
2023-04-30T08:00:48.019Z,2915.00
2023-04-30T08:01:48.075Z,2787.00
2023-04-30T08:02:48.483Z,2874.00
2023-04-30T08:03:48.095Z,3306.00
2023-04-30T08:04:48.009Z,3619.00
2023-04-30T08:05:48.028Z,3068.00
2023-04-30T08:06:48.045Z,2543.00
2023-04-30T08:07:47.992Z,2069.00
2023-04-30T08:08:48.821Z,1976.00
2023-04-30T08:09:47.987Z,2036.00
2023-04-30T08:10:47.968Z,2121.00
2023-04-30T08:11:47.935Z,2111.00
2023-04-30T08:12:47.964Z,2144.00
2023-04-30T08:13:47.938Z,2190.00
2023-04-30T08:14:47.968Z,2013.00
2023-04-30T08:15:47.910Z,1902.00
2023-04-30T08:16:47.998Z,1947.00
2023-04-30T08:17:47.942Z,1794.00
2023-04-30T08:18:47.914Z,1782.00
2023-04-30T08:19:47.946Z,1822.00
2023-04-30T08:20:47.908Z,1838.00
2023-04-30T08:21:47.916Z,2162.00
2023-04-30T08:22:47.897Z,2137.00
2023-04-30T08:23:47.879Z,1867.00
2023-04-30T08:24:47.889Z,1900.00
2023-04-30T08:25:47.884Z,1940.00
2023-04-30T08:26:47.872Z,1814.00
2023-04-30T08:27:47.887Z,1872.00
2023-04-30T08:28:47.861Z,1871.00
2023-04-30T08:29:47.842Z,1721.00
2023-04-30T08:30:47.860Z,1712.00
2023-04-30T08:31:47.958Z,1777.00
2023-04-30T08:32:47.955Z,1890.00
2023-04-30T08:33:47.930Z,1872.00
2023-04-30T08:34:48.003Z,1875.00
2023-04-30T08:35:48.018Z,2102.00
2023-04-30T08:36:48.057Z,2554.00
2023-04-30T08:37:48.089Z,2918.00
2023-04-30T08:38:48.081Z,2985.00
2023-04-30T08:39:48.174Z,3081.00
2023-04-30T08:40:51.543Z,3103.00
2023-04-30T08:41:48.160Z,2873.00
2023-04-30T08:42:48.344Z,2843.00
2023-04-30T08:43:48.203Z,2498.00
2023-04-30T08:44:48.170Z,2443.00
2023-04-30T08:45:48.171Z,2144.00
2023-04-30T08:46:48.157Z,2145.00
2023-04-30T08:47:48.222Z,2201.00
2023-04-30T08:48:48.147Z,1910.00
2023-04-30T08:49:48.132Z,1921.00
2023-04-30T08:50:48.108Z,2133.00
2023-04-30T08:51:48.088Z,1744.00
2023-04-30T08:52:48.100Z,1476.00
2023-04-30T08:53:48.094Z,1086.00
2023-04-30T08:54:48.109Z,1145.00
2023-04-30T08:55:48.075Z,1084.00
2023-04-30T08:56:48.070Z,1321.00
2023-04-30T08:57:48.088Z,1449.00
2023-04-30T08:58:48.085Z,982.00
2023-04-30T08:59:48.118Z,873.00
2023-04-30T09:00:48.033Z,767.00
2023-04-30T09:01:48.118Z,626.00
2023-04-30T09:02:48.162Z,584.00
2023-04-30T09:03:48.156Z,602.00
2023-04-30T09:04:48.043Z,559.00
2023-04-30T09:05:48.026Z,591.00
2023-04-30T09:06:48.010Z,679.00
2023-04-30T09:08:48.042Z,576.00
2023-04-30T09:09:47.988Z,620.00
2023-04-30T09:10:48.005Z,574.00
2023-04-30T09:11:47.954Z,581.00
2023-04-30T09:12:47.968Z,607.00
2023-04-30T09:13:47.981Z,598.00
2023-04-30T09:14:47.931Z,604.00
2023-04-30T09:15:47.959Z,539.00
2023-04-30T09:16:47.939Z,479.00
2023-04-30T09:17:48.589Z,508.00
2023-04-30T09:18:47.961Z,597.00
2023-04-30T09:19:47.917Z,556.00
2023-04-30T09:20:48.041Z,503.00
2023-04-30T09:21:47.902Z,497.00
2023-04-30T09:22:47.931Z,568.00
2023-04-30T09:23:47.906Z,581.00
2023-04-30T09:24:47.878Z,539.00
2023-04-30T09:25:47.896Z,552.00
2023-04-30T09:26:47.870Z,493.00
2023-04-30T09:27:47.901Z,487.00
2023-04-30T09:28:47.873Z,442.00
2023-04-30T09:29:47.819Z,521.00
2023-04-30T09:30:47.838Z,457.00
2023-04-30T09:31:47.958Z,608.00
2023-04-30T09:32:47.824Z,792.00
2023-04-30T09:33:47.839Z,794.00
2023-04-30T09:34:47.817Z,870.00
2023-04-30T09:35:47.798Z,867.00
2023-04-30T09:36:47.790Z,727.00
2023-04-30T09:37:47.784Z,712.00
2023-04-30T09:38:47.776Z,629.00
2023-04-30T09:39:47.786Z,530.00
2023-04-30T09:40:47.792Z,502.00
2023-04-30T09:41:47.781Z,547.00
2023-04-30T09:42:47.817Z,576.00
2023-04-30T09:43:47.715Z,601.00
2023-04-30T09:44:47.749Z,509.00
2023-04-30T09:45:47.734Z,545.00
2023-04-30T09:46:47.787Z,505.00
2023-04-30T09:47:47.718Z,468.00
2023-04-30T09:48:47.736Z,521.00
2023-04-30T09:49:47.743Z,572.00
2023-04-30T09:50:47.710Z,582.00
2023-04-30T09:51:47.709Z,598.00
2023-04-30T09:52:47.690Z,600.00
2023-04-30T09:53:47.695Z,599.00
2023-04-30T09:54:47.727Z,606.00
2023-04-30T09:55:47.697Z,654.00
2023-04-30T09:56:47.689Z,743.00
2023-04-30T09:57:47.680Z,805.00
2023-04-30T09:58:47.657Z,867.00
2023-04-30T09:59:47.658Z,542.00
2023-04-30T10:00:47.682Z,622.00
2023-04-30T10:01:47.683Z,551.00
2023-04-30T10:02:47.734Z,500.00
2023-04-30T10:03:47.810Z,624.00
2023-04-30T10:04:47.754Z,982.00
2023-04-30T10:05:47.810Z,1022.00
2023-04-30T10:06:47.828Z,998.00
2023-04-30T10:07:47.852Z,642.00
2023-04-30T10:08:47.879Z,691.00
2023-04-30T10:09:47.923Z,773.00
2023-04-30T10:10:47.965Z,662.00
2023-04-30T10:11:47.975Z,558.00
2023-04-30T10:12:48.004Z,562.00
2023-04-30T10:13:47.978Z,518.00
2023-04-30T10:14:48.036Z,528.00
2023-04-30T10:15:48.089Z,651.00
2023-04-30T10:16:48.263Z,600.00
2023-04-30T10:17:48.146Z,489.00
2023-04-30T10:18:48.189Z,479.00
2023-04-30T10:19:48.186Z,539.00
2023-04-30T10:20:48.239Z,692.00
2023-04-30T10:21:48.319Z,483.00
2023-04-30T10:22:48.324Z,487.00
2023-04-30T10:23:48.365Z,430.00
2023-04-30T10:24:48.360Z,504.00
2023-04-30T10:25:48.423Z,476.00
2023-04-30T10:26:48.474Z,451.00
2023-04-30T10:27:48.440Z,591.00
2023-04-30T10:28:48.527Z,691.00
2023-04-30T10:29:48.563Z,503.00
2023-04-30T10:30:48.601Z,541.00
2023-04-30T10:31:48.725Z,501.00
2023-04-30T10:32:48.745Z,426.00
2023-04-30T10:33:48.725Z,528.00
2023-04-30T10:34:48.751Z,562.00
2023-04-30T10:35:48.781Z,632.00
2023-04-30T10:36:48.891Z,685.00
2023-04-30T10:37:48.909Z,487.00
2023-04-30T10:38:48.964Z,401.00
2023-04-30T10:39:48.954Z,400.00
2023-04-30T10:40:48.984Z,594.00
2023-04-30T10:41:49.079Z,1131.00
2023-04-30T10:42:49.052Z,1186.00
2023-04-30T10:43:49.070Z,1059.00
2023-04-30T10:44:49.095Z,864.00
2023-04-30T10:45:49.130Z,806.00
2023-04-30T10:46:49.192Z,837.00
2023-04-30T10:47:49.247Z,721.00
2023-04-30T10:48:49.246Z,642.00
2023-04-30T10:49:49.261Z,534.00
2023-04-30T10:50:49.281Z,527.00
2023-04-30T10:51:49.318Z,600.00
2023-04-30T10:52:49.384Z,728.00
2023-04-30T10:53:49.428Z,563.00
2023-04-30T10:54:49.468Z,588.00
2023-04-30T10:55:49.507Z,565.00
2023-04-30T10:56:49.554Z,599.00
2023-04-30T10:57:49.548Z,595.00
2023-04-30T10:58:49.609Z,505.00
2023-04-30T10:59:49.561Z,589.00
2023-04-30T11:00:49.591Z,529.00
2023-04-30T11:01:49.711Z,650.00
2023-04-30T11:02:49.714Z,651.00
2023-04-30T11:03:49.708Z,633.00
2023-04-30T11:04:49.774Z,632.00
2023-04-30T11:05:49.747Z,775.00
2023-04-30T11:06:49.865Z,870.00
2023-04-30T11:07:49.842Z,746.00
2023-04-30T11:08:49.899Z,1085.00
2023-04-30T11:09:49.891Z,1500.00
2023-04-30T11:10:49.936Z,1595.00
2023-04-30T11:11:49.990Z,1437.00
2023-04-30T11:12:50.025Z,1039.00
2023-04-30T11:13:50.049Z,969.00
2023-04-30T11:14:50.048Z,767.00
2023-04-30T11:15:50.130Z,1250.00
2023-04-30T11:16:50.129Z,1312.00
2023-04-30T11:17:50.220Z,1380.00
2023-04-30T11:18:50.201Z,1104.00
2023-04-30T11:19:50.250Z,1209.00
2023-04-30T11:20:50.270Z,1195.00
2023-04-30T11:21:50.259Z,1188.00
2023-04-30T11:22:50.305Z,1803.00
2023-04-30T11:23:50.345Z,1967.00
2023-04-30T11:24:50.370Z,1292.00
2023-04-30T11:25:50.434Z,1244.00
2023-04-30T11:26:50.494Z,1073.00
2023-04-30T11:27:50.501Z,901.00
2023-04-30T11:28:50.552Z,1155.00
2023-04-30T11:29:50.589Z,1449.00
2023-04-30T11:30:50.609Z,1444.00
2023-04-30T11:31:50.679Z,946.00
2023-04-30T11:32:50.715Z,1082.00
2023-04-30T11:33:50.702Z,1440.00
2023-04-30T11:34:50.764Z,1391.00
2023-04-30T11:35:50.805Z,1161.00
2023-04-30T11:36:50.798Z,1267.00
2023-04-30T11:37:50.865Z,1286.00
2023-04-30T11:38:50.903Z,966.00
2023-04-30T11:39:50.878Z,1105.00
2023-04-30T11:40:50.908Z,1328.00
2023-04-30T11:41:50.933Z,1089.00
2023-04-30T11:42:50.975Z,1265.00
2023-04-30T11:43:50.980Z,779.00
2023-04-30T11:44:51.004Z,1150.00
2023-04-30T11:45:51.065Z,881.00
2023-04-30T11:46:51.108Z,769.00
2023-04-30T11:47:51.127Z,635.00
2023-04-30T11:48:51.158Z,967.00
2023-04-30T11:49:51.182Z,748.00
2023-04-30T11:50:51.257Z,910.00
2023-04-30T11:51:51.240Z,1392.00
2023-04-30T11:52:51.253Z,1508.00
2023-04-30T11:53:51.256Z,1568.00
2023-04-30T11:54:51.295Z,1701.00
2023-04-30T11:55:51.330Z,1455.00
2023-04-30T11:56:51.361Z,1407.00
2023-04-30T11:57:51.394Z,1442.00
2023-04-30T11:58:51.441Z,1365.00
2023-04-30T11:59:51.499Z,950.00
2023-04-30T12:00:51.507Z,1171.00
2023-04-30T12:01:51.549Z,1328.00
2023-04-30T12:02:51.861Z,901.00
2023-04-30T12:03:51.620Z,1150.00
2023-04-30T12:04:55.343Z,1018.00
2023-04-30T12:05:51.671Z,1460.00
2023-04-30T12:06:51.690Z,1646.00
2023-04-30T12:07:51.578Z,1628.00
2023-04-30T12:08:51.602Z,1262.00
2023-04-30T12:09:51.579Z,1422.00
2023-04-30T12:10:51.565Z,1180.00
2023-04-30T12:11:51.544Z,911.00